createdAt,value
2022-08-16T00:04:59.744Z,4.30
2022-08-16T00:10:02.199Z,4.50
2022-08-16T00:15:11.594Z,3.78
2022-08-16T00:20:14.362Z,4.65
2022-08-16T00:25:18.672Z,5.00
2022-08-16T00:30:28.791Z,3.92
2022-08-16T00:35:34.815Z,3.72
2022-08-16T00:40:43.567Z,4.85
2022-08-16T00:46:33.262Z,4.32
2022-08-16T00:51:29.550Z,4.40
2022-08-16T00:56:58.075Z,3.58
2022-08-16T01:01:56.096Z,3.95
2022-08-16T01:07:02.303Z,3.75
2022-08-16T01:12:08.604Z,4.47
2022-08-16T01:17:14.976Z,3.90
2022-08-16T01:22:47.536Z,3.55
2022-08-16T01:27:57.467Z,3.33
2022-08-16T01:33:14.737Z,3.50
2022-08-16T01:38:30.826Z,3.55
2022-08-16T01:43:35.407Z,3.90
2022-08-16T01:48:37.659Z,3.53
2022-08-16T01:53:41.962Z,3.78
2022-08-16T01:59:03.992Z,3.63
2022-08-16T02:04:10.927Z,3.83
2022-08-16T02:09:14.565Z,3.80
2022-08-16T02:14:21.592Z,4.18
2022-08-16T02:19:59.114Z,4.05
2022-08-16T02:24:50.189Z,4.53
2022-08-16T02:30:05.049Z,3.90
2022-08-16T02:35:09.218Z,3.58
2022-08-16T02:40:16.367Z,3.75
2022-08-16T02:45:20.876Z,4.18
2022-08-16T02:50:53.976Z,4.00
2022-08-16T02:55:50.535Z,3.70
2022-08-16T03:00:55.953Z,4.07
2022-08-16T03:06:00.184Z,3.70
2022-08-16T03:11:02.012Z,4.45
2022-08-16T03:16:04.819Z,4.10
2022-08-16T03:21:06.520Z,5.13
2022-08-16T03:26:12.838Z,4.40
2022-08-16T03:31:15.551Z,4.45
2022-08-16T03:36:31.013Z,4.22
2022-08-16T03:41:50.388Z,3.78
2022-08-16T03:46:54.440Z,4.40
2022-08-16T03:52:06.798Z,4.15
2022-08-16T03:57:11.314Z,3.50
2022-08-16T04:02:22.567Z,4.28
2022-08-16T04:07:34.661Z,4.40
2022-08-16T04:12:53.904Z,4.63
2022-08-16T04:17:58.981Z,3.72
2022-08-16T04:23:01.392Z,4.20
2022-08-16T04:28:51.899Z,4.80
2022-08-16T04:33:27.683Z,4.63
2022-08-16T04:38:32.971Z,4.95
2022-08-16T04:43:34.995Z,5.25
2022-08-16T04:48:37.710Z,4.82
2022-08-16T04:53:45.005Z,4.95
2022-08-16T04:58:47.368Z,5.20
2022-08-16T05:04:00.569Z,4.63
2022-08-16T05:09:05.233Z,4.57
2022-08-16T05:14:08.097Z,3.85
2022-08-16T05:19:16.349Z,3.92
2022-08-16T05:24:38.161Z,4.65
2022-08-16T05:30:00.809Z,4.35
2022-08-16T05:35:10.995Z,4.55
2022-08-16T05:40:16.461Z,3.25
2022-08-16T05:45:22.176Z,3.13
2022-08-16T05:50:33.810Z,3.00
2022-08-16T05:55:40.874Z,3.22
2022-08-16T06:00:43.354Z,2.95
2022-08-16T06:05:45.076Z,3.42
2022-08-16T06:11:09.725Z,3.33
2022-08-16T06:16:17.808Z,3.38
2022-08-16T06:21:23.721Z,2.80
2022-08-16T06:26:37.060Z,2.63
2022-08-16T06:31:46.836Z,2.88
2022-08-16T06:36:51.738Z,3.13
2022-08-16T06:42:02.230Z,2.92
2022-08-16T06:47:22.815Z,3.22
2022-08-16T06:52:58.539Z,2.97
2022-08-16T06:57:47.125Z,3.20
2022-08-16T07:02:51.718Z,2.88
2022-08-16T07:07:54.332Z,2.97
2022-08-16T07:13:04.345Z,2.65
2022-08-16T07:18:13.249Z,2.72
2022-08-16T07:23:21.147Z,3.13
2022-08-16T07:28:39.697Z,3.58
2022-08-16T07:33:52.629Z,2.92
2022-08-16T07:39:00.060Z,3.30
2022-08-16T07:44:16.339Z,2.92
2022-08-16T07:49:19.573Z,3.58
2022-08-16T07:54:32.227Z,3.53
2022-08-16T07:59:46.064Z,3.03
2022-08-16T08:04:50.218Z,3.13
2022-08-16T08:09:52.447Z,3.00
2022-08-16T08:14:54.930Z,3.22
2022-08-16T08:19:56.620Z,3.30
2022-08-16T08:24:59.767Z,2.92
2022-08-16T08:30:49.610Z,3.00
2022-08-16T08:35:29.842Z,2.85
2022-08-16T08:40:33.326Z,2.85
2022-08-16T08:45:52.876Z,3.17
2022-08-16T08:50:55.781Z,2.88
2022-08-16T08:56:00.354Z,3.07
2022-08-16T09:01:04.320Z,3.55
2022-08-16T09:06:07.791Z,3.13
2022-08-16T09:11:15.842Z,3.40
2022-08-16T09:17:01.695Z,3.95
2022-08-16T09:21:43.697Z,3.28
2022-08-16T09:26:47.080Z,3.53
2022-08-16T09:31:57.070Z,3.80
2022-08-16T09:37:00.344Z,4.00
2022-08-16T09:42:02.121Z,3.27
2022-08-16T09:47:03.967Z,3.58
2022-08-16T09:52:12.132Z,3.97
2022-08-16T09:57:13.687Z,3.92
2022-08-16T10:02:26.509Z,3.80
2022-08-16T10:07:44.778Z,3.45
2022-08-16T10:12:56.813Z,4.38
2022-08-16T10:18:01.683Z,3.47
2022-08-16T10:23:06.780Z,3.35
2022-08-16T10:28:27.942Z,3.95
2022-08-16T10:33:33.789Z,3.50
2022-08-16T10:38:38.374Z,2.90
2022-08-16T10:43:42.040Z,3.67
2022-08-16T10:48:47.046Z,3.63
2022-08-16T10:53:48.783Z,3.60
2022-08-16T11:03:57.446Z,3.45
2022-08-16T11:14:21.012Z,3.28
2022-08-16T11:19:22.937Z,3.00
2022-08-16T11:24:39.896Z,3.33
2022-08-16T11:29:43.646Z,3.08
2022-08-16T11:35:11.002Z,3.30
2022-08-16T11:40:08.098Z,3.80
2022-08-16T11:45:11.075Z,3.40
2022-08-16T11:50:13.505Z,2.80
2022-08-16T11:55:15.138Z,2.88
2022-08-16T12:00:33.561Z,3.25
2022-08-16T12:05:40.472Z,3.13
2022-08-16T12:10:43.769Z,3.10
2022-08-16T12:15:47.502Z,2.95
2022-08-16T12:20:49.629Z,3.05
2022-08-16T12:25:51.334Z,2.83
2022-08-16T12:30:53.838Z,3.08
2022-08-16T12:35:55.401Z,3.10
2022-08-16T12:40:57.389Z,2.90
2022-08-16T12:45:59.170Z,4.00
2022-08-16T12:51:10.906Z,3.42
2022-08-16T12:56:25.386Z,2.88
2022-08-16T13:01:33.482Z,3.45
2022-08-16T13:06:36.006Z,2.83
2022-08-16T13:11:41.429Z,2.92
2022-08-16T13:21:52.609Z,3.30
2022-08-16T13:26:54.254Z,3.03
2022-08-16T13:31:56.016Z,3.17
2022-08-16T13:36:57.811Z,3.20
2022-08-16T13:42:00.672Z,3.93
2022-08-16T13:47:02.523Z,3.05
2022-08-16T13:52:04.745Z,3.08
2022-08-16T13:57:11.663Z,3.25
2022-08-16T14:02:13.703Z,3.10
2022-08-16T14:07:19.952Z,3.23
2022-08-16T14:12:31.204Z,2.50
2022-08-16T14:18:01.819Z,2.92
2022-08-16T14:22:56.197Z,2.90
2022-08-16T14:27:57.747Z,2.97
2022-08-16T14:32:59.300Z,3.38
2022-08-16T14:38:02.162Z,3.17
2022-08-16T14:43:07.080Z,3.08
2022-08-16T14:48:09.185Z,2.90
2022-08-16T14:53:10.796Z,3.10
2022-08-16T14:58:18.724Z,2.50
2022-08-16T15:03:21.511Z,2.55
2022-08-16T15:08:36.285Z,3.20
2022-08-16T15:13:39.125Z,2.88
2022-08-16T15:18:40.693Z,2.75
2022-08-16T15:23:42.842Z,2.97
2022-08-16T15:28:46.007Z,2.80
2022-08-16T15:33:56.624Z,3.72
2022-08-16T15:39:06.859Z,3.20
2022-08-16T15:44:26.282Z,3.20
2022-08-16T15:49:37.142Z,3.40
2022-08-16T15:54:52.594Z,3.03
2022-08-16T16:00:04.058Z,3.33
2022-08-16T16:05:13.868Z,2.85
2022-08-16T16:10:15.444Z,2.78
2022-08-16T16:15:20.290Z,3.13
2022-08-16T16:20:27.924Z,2.63
2022-08-16T16:25:32.218Z,3.58
2022-08-16T16:30:44.579Z,3.50
2022-08-16T16:35:47.388Z,2.85
2022-08-16T16:40:58.618Z,3.70
2022-08-16T16:46:03.268Z,2.90
2022-08-16T16:51:28.140Z,2.87
2022-08-16T16:56:36.918Z,3.15
2022-08-16T17:01:57.512Z,3.35
2022-08-16T17:07:03.515Z,2.78
2022-08-16T17:12:05.799Z,2.97
2022-08-16T17:17:09.065Z,3.42
2022-08-16T17:22:14.526Z,3.13
2022-08-16T17:27:17.895Z,3.55
2022-08-16T17:32:33.914Z,2.67
2022-08-16T17:37:51.008Z,3.42
2022-08-16T17:42:54.693Z,3.42
2022-08-16T17:47:56.495Z,3.65
2022-08-16T17:52:58.207Z,3.50
2022-08-16T17:58:00.238Z,3.97
2022-08-16T18:03:01.780Z,3.92
2022-08-16T18:08:03.531Z,4.28
2022-08-16T18:13:05.109Z,3.70
2022-08-16T18:18:09.382Z,4.43
2022-08-16T18:23:15.193Z,4.13
2022-08-16T18:28:20.333Z,3.83
2022-08-16T18:33:24.152Z,3.65
2022-08-16T18:38:26.093Z,3.97
2022-08-16T18:44:22.587Z,4.00
2022-08-16T18:48:50.488Z,4.25
2022-08-16T18:53:52.217Z,3.92
2022-08-16T18:58:53.767Z,3.30
2022-08-16T19:03:55.332Z,4.38
2022-08-16T19:08:56.915Z,4.13
2022-08-16T19:13:58.608Z,4.50
2022-08-16T19:19:00.194Z,4.35
2022-08-16T19:24:01.980Z,3.72
2022-08-16T19:29:08.265Z,4.13
2022-08-16T19:34:10.315Z,4.10
2022-08-16T19:39:15.205Z,4.50
2022-08-16T19:44:17.061Z,5.27
2022-08-16T19:49:18.704Z,4.78
2022-08-16T19:54:20.390Z,4.65
2022-08-16T19:59:39.053Z,4.00
2022-08-16T20:04:42.363Z,5.05
2022-08-16T20:09:48.058Z,4.18
2022-08-16T20:14:52.066Z,5.78
2022-08-16T20:19:53.636Z,4.55
2022-08-16T20:24:55.629Z,3.67
2022-08-16T20:29:57.395Z,4.30
2022-08-16T20:34:58.998Z,4.22
2022-08-16T20:40:27.197Z,4.72
2022-08-16T20:45:22.182Z,3.90
2022-08-16T20:50:28.846Z,4.07
2022-08-16T20:55:33.316Z,3.78
2022-08-16T21:00:35.041Z,4.03
2022-08-16T21:05:37.156Z,4.32
2022-08-16T21:10:38.810Z,4.40
2022-08-16T21:15:40.347Z,4.85
2022-08-16T21:20:42.056Z,4.22
2022-08-16T21:25:57.695Z,4.97
2022-08-16T21:31:00.261Z,4.38
2022-08-16T21:36:01.821Z,4.30
2022-08-16T21:41:06.058Z,5.03
2022-08-16T21:46:08.623Z,4.13
2022-08-16T21:51:12.932Z,4.40
2022-08-16T21:56:16.788Z,3.78
2022-08-16T22:01:19.257Z,4.93
2022-08-16T22:06:20.837Z,4.70
2022-08-16T22:11:25.169Z,4.45
2022-08-16T22:16:29.109Z,4.07
2022-08-16T22:21:32.073Z,4.53
2022-08-16T22:26:39.583Z,4.35
2022-08-16T22:31:44.776Z,4.25
2022-08-16T22:36:47.470Z,4.63
2022-08-16T22:41:49.004Z,3.90
2022-08-16T22:46:50.610Z,5.38
2022-08-16T22:51:52.387Z,5.28
2022-08-16T22:56:54.053Z,5.38
2022-08-16T23:01:56.119Z,4.60
2022-08-16T23:06:57.866Z,4.53
2022-08-16T23:12:04.303Z,4.53
2022-08-16T23:17:06.001Z,5.05
2022-08-16T23:22:07.545Z,4.70
2022-08-16T23:27:09.289Z,4.97
2022-08-16T23:32:11.744Z,5.03
2022-08-16T23:37:13.303Z,5.18
2022-08-16T23:42:15.399Z,4.82
2022-08-16T23:47:37.037Z,5.93
2022-08-16T23:52:54.025Z,6.00
2022-08-16T23:57:57.229Z,4.72
